createdAt,value
2022-08-21T02:06:27.717Z,96.30
2022-08-21T02:08:53.658Z,96.90
2022-08-21T02:11:19.615Z,96.80
2022-08-21T02:13:45.623Z,96.70
2022-08-21T02:16:11.632Z,96.20
2022-08-21T02:18:39.423Z,96.90
2022-08-21T02:21:05.481Z,97.50
2022-08-21T02:23:32.152Z,97.30
2022-08-21T02:25:58.124Z,97.50
2022-08-21T02:28:24.121Z,96.20
2022-08-21T02:30:52.022Z,96.90
2022-08-21T02:33:18.024Z,97.10
2022-08-21T02:35:44.001Z,96.80
2022-08-21T02:38:13.150Z,97.30
2022-08-21T02:40:40.410Z,97.10
2022-08-21T02:43:15.010Z,97.40
2022-08-21T02:45:40.972Z,97.30
2022-08-21T02:48:06.910Z,96.70
2022-08-21T02:50:33.760Z,97.30
2022-08-21T02:53:00.029Z,97.50
2022-08-21T02:55:26.158Z,97.70
2022-08-21T02:57:53.121Z,97.50
2022-08-21T03:00:19.102Z,96.80
2022-08-21T03:02:45.047Z,96.50
2022-08-21T03:05:11.917Z,97.30
2022-08-21T03:07:37.894Z,97.30
2022-08-21T03:10:03.834Z,97.80
2022-08-21T03:12:30.217Z,97.70
2022-08-21T03:14:57.001Z,97.10
2022-08-21T03:17:29.839Z,95.50
2022-08-21T03:19:56.247Z,95.90
2022-08-21T03:22:22.196Z,97.00
2022-08-21T03:24:48.137Z,96.10
2022-08-21T03:27:15.251Z,96.70
2022-08-21T03:29:41.190Z,95.70
2022-08-21T03:32:07.151Z,96.30
2022-08-21T03:34:33.986Z,96.20
2022-08-21T03:36:59.998Z,97.00
2022-08-21T03:39:25.958Z,96.50
2022-08-21T03:41:51.930Z,96.80
2022-08-21T03:44:18.572Z,96.90
2022-08-21T03:46:44.510Z,96.80
2022-08-21T03:49:10.500Z,96.30
2022-08-21T03:51:37.139Z,96.30
2022-08-21T03:54:03.538Z,97.00
2022-08-21T03:56:29.591Z,97.00
2022-08-21T03:58:55.553Z,97.00
2022-08-21T04:01:22.304Z,95.50
2022-08-21T04:03:50.589Z,96.70
2022-08-21T04:06:16.941Z,96.80
2022-08-21T04:08:43.548Z,96.60
2022-08-21T04:11:09.614Z,97.10
2022-08-21T04:13:35.561Z,96.90
2022-08-21T04:16:10.407Z,97.70
2022-08-21T04:18:37.084Z,96.90
2022-08-21T04:21:03.100Z,96.80
2022-08-21T04:23:30.904Z,97.70
2022-08-21T04:25:57.525Z,97.70
2022-08-21T04:28:23.615Z,98.00
2022-08-21T04:30:55.143Z,98.40
2022-08-21T04:33:21.077Z,98.30
2022-08-21T04:35:47.781Z,98.40
2022-08-21T04:38:13.832Z,98.30
2022-08-21T04:40:39.789Z,98.20
2022-08-21T04:43:06.468Z,99.10
2022-08-21T04:45:32.801Z,99.30
2022-08-21T04:47:59.143Z,98.70
2022-08-21T04:50:25.392Z,98.20
2022-08-21T04:52:53.070Z,98.10
2022-08-21T04:58:01.888Z,98.80
2022-08-21T05:00:28.034Z,98.40
2022-08-21T07:01:29.824Z,99.90
2022-08-21T07:03:55.865Z,99.60
2022-08-21T07:06:22.543Z,98.90
2022-08-21T07:08:48.552Z,99.90
2022-08-21T07:11:15.245Z,99.90
2022-08-21T07:13:41.933Z,99.90
2022-08-21T07:16:07.992Z,99.90
2022-08-21T07:18:33.942Z,99.90
2022-08-21T07:20:59.935Z,99.90
2022-08-21T07:23:25.940Z,99.90
2022-08-21T07:25:52.711Z,99.90
2022-08-21T07:28:18.705Z,99.90
2022-08-21T07:30:44.761Z,99.50
2022-08-21T07:33:10.722Z,99.90
2022-08-21T07:35:37.406Z,99.90
2022-08-21T07:38:03.444Z,99.90
2022-08-21T07:40:29.424Z,99.90
2022-08-21T07:42:55.553Z,99.90
2022-08-21T07:45:21.591Z,99.90
2022-08-21T07:47:47.530Z,99.90
2022-08-21T07:50:14.163Z,99.90
2022-08-21T07:52:40.174Z,99.90
2022-08-21T07:55:06.883Z,99.90
2022-08-21T07:57:32.946Z,99.90
2022-08-21T07:59:59.000Z,99.90
2022-08-21T08:02:25.013Z,99.90
2022-08-21T08:04:51.283Z,99.90
2022-08-21T08:07:17.331Z,99.90
2022-08-21T08:09:43.985Z,99.90
2022-08-21T08:12:09.995Z,99.90
2022-08-21T08:14:36.795Z,99.90
2022-08-21T08:17:02.778Z,99.90
2022-08-21T08:19:28.745Z,99.90
2022-08-21T08:21:54.775Z,99.90
2022-08-21T08:24:21.396Z,99.90
2022-08-21T08:26:53.466Z,99.90
2022-08-21T08:29:19.987Z,99.90
2022-08-21T08:31:45.957Z,99.90
2022-08-21T08:34:11.893Z,99.90
2022-08-21T08:36:50.573Z,99.90
2022-08-21T08:39:26.302Z,99.90
2022-08-21T08:41:55.093Z,99.90
2022-08-21T08:44:24.749Z,99.90
2022-08-21T08:46:57.494Z,99.90
2022-08-21T08:49:24.317Z,98.20
2022-08-21T08:51:53.011Z,98.40
2022-08-21T08:54:19.384Z,99.90
2022-08-21T08:56:45.326Z,99.90
2022-08-21T08:59:11.951Z,99.90
2022-08-21T09:01:39.247Z,99.90
2022-08-21T09:04:05.332Z,99.90
2022-08-21T09:06:31.279Z,99.40
2022-08-21T09:08:57.312Z,99.90
2022-08-21T09:11:23.300Z,99.90
2022-08-21T09:13:49.677Z,99.90
2022-08-21T09:16:15.723Z,99.90
2022-08-21T09:18:41.744Z,99.90
2022-08-21T09:21:08.400Z,99.90
2022-08-21T09:23:34.390Z,99.80
2022-08-21T09:26:00.346Z,99.90
2022-08-21T09:28:27.012Z,99.70
2022-08-21T09:30:53.015Z,99.40
2022-08-21T09:33:18.987Z,98.60
2022-08-21T09:35:44.972Z,99.90
2022-08-21T09:38:10.964Z,98.90
2022-08-21T09:40:38.608Z,99.60
2022-08-21T09:43:04.934Z,98.90
2022-08-21T09:45:33.899Z,99.80
2022-08-21T09:48:01.686Z,99.90
2022-08-21T09:50:28.198Z,99.90
2022-08-21T09:52:56.601Z,99.90
2022-08-21T11:48:40.594Z,93.70
2022-08-21T11:51:06.804Z,94.50
2022-08-21T11:53:32.750Z,94.60
2022-08-21T11:55:59.668Z,93.70
2022-08-21T11:58:25.664Z,93.30
2022-08-21T12:00:51.645Z,93.60
2022-08-21T12:03:18.399Z,93.80
2022-08-21T12:05:44.945Z,93.40
2022-08-21T12:08:10.935Z,93.60
2022-08-21T12:10:36.941Z,93.90
2022-08-21T12:13:03.614Z,93.70
2022-08-21T12:15:29.561Z,93.70
2022-08-21T12:17:55.583Z,94.10
2022-08-21T12:20:21.564Z,93.10
2022-08-21T12:22:47.549Z,92.80
2022-08-21T12:25:21.485Z,93.20
2022-08-21T12:27:48.520Z,93.80
2022-08-21T12:30:14.470Z,93.10
2022-08-21T12:32:40.467Z,93.40
2022-08-21T12:35:07.239Z,93.90
2022-08-21T12:37:33.210Z,95.80
2022-08-21T12:39:59.297Z,94.90
2022-08-21T12:42:25.356Z,95.70
2022-08-21T12:44:52.034Z,93.50
2022-08-21T12:47:18.069Z,94.20
2022-08-21T12:49:44.072Z,94.10
2022-08-21T12:52:10.051Z,94.90
2022-08-21T12:54:36.194Z,94.30
2022-08-21T12:57:02.999Z,94.40
2022-08-21T12:59:28.975Z,95.10
2022-08-21T13:01:55.004Z,95.20
2022-08-21T13:04:21.208Z,94.00
2022-08-21T13:06:47.976Z,94.30
2022-08-21T13:09:13.974Z,94.20
2022-08-21T13:11:40.971Z,94.20
2022-08-21T13:14:07.748Z,93.60
2022-08-21T13:16:36.627Z,93.50
2022-08-21T13:19:03.356Z,94.50
2022-08-21T13:21:29.336Z,93.40
2022-08-21T13:23:55.337Z,94.80
2022-08-21T13:26:21.276Z,94.40
2022-08-21T13:28:47.223Z,93.60
2022-08-21T13:31:14.151Z,93.10
2022-08-21T13:33:40.385Z,92.80
2022-08-21T13:36:06.332Z,93.70
2022-08-21T13:38:32.319Z,93.60
2022-08-21T13:40:59.003Z,93.00
2022-08-21T13:43:24.996Z,93.60
2022-08-21T13:45:51.035Z,93.10
2022-08-21T13:48:17.761Z,93.50
2022-08-21T13:50:44.375Z,94.10
2022-08-21T13:53:10.365Z,94.10
2022-08-21T13:55:36.355Z,92.60
2022-08-21T13:58:02.297Z,94.50
2022-08-21T14:00:28.348Z,94.70
2022-08-21T14:02:54.316Z,94.20
2022-08-21T14:05:20.306Z,94.10
2022-08-21T14:07:46.373Z,94.20
2022-08-21T14:10:12.394Z,94.60
2022-08-21T14:12:38.366Z,93.40
2022-08-21T14:15:04.350Z,92.60
2022-08-21T14:17:33.340Z,92.50
2022-08-21T14:20:00.143Z,94.00
2022-08-21T14:22:26.534Z,94.20
2022-08-21T14:24:55.114Z,93.10
2022-08-21T14:27:21.559Z,93.10
2022-08-21T14:29:47.826Z,94.40
2022-08-21T14:32:21.832Z,93.80
2022-08-21T14:34:51.172Z,93.20
2022-08-21T14:37:17.408Z,92.80
2022-08-21T14:39:45.324Z,93.20
2022-08-21T16:25:54.878Z,88.90
2022-08-21T16:28:20.822Z,88.80
2022-08-21T16:30:47.909Z,88.80
2022-08-21T16:33:13.910Z,87.80
2022-08-21T16:35:39.852Z,88.70
2022-08-21T16:38:05.909Z,86.80
2022-08-21T16:40:31.920Z,85.60
2022-08-21T16:42:58.058Z,87.30
2022-08-21T16:45:25.734Z,89.10
2022-08-21T16:47:53.077Z,88.60
2022-08-21T16:50:19.033Z,87.90
2022-08-21T16:52:45.015Z,88.00
2022-08-21T16:55:11.084Z,90.00
2022-08-21T16:57:37.044Z,88.00
2022-08-21T17:00:03.721Z,90.00
2022-08-21T17:02:29.781Z,85.90
2022-08-21T17:04:55.756Z,88.40
2022-08-21T17:07:22.424Z,86.70
2022-08-21T17:09:48.647Z,88.60
2022-08-21T17:12:14.653Z,86.60
2022-08-21T17:14:40.815Z,88.70
2022-08-21T17:17:06.834Z,90.70
2022-08-21T17:19:32.797Z,89.10
2022-08-21T17:21:59.543Z,90.60
2022-08-21T17:24:25.563Z,89.10
2022-08-21T17:26:51.505Z,87.90
2022-08-21T17:29:18.231Z,88.80
2022-08-21T17:31:44.286Z,91.20
2022-08-21T17:34:10.249Z,90.00
2022-08-21T17:36:36.681Z,90.70
2022-08-21T17:39:02.667Z,91.20
2022-08-21T17:41:28.594Z,91.40
2022-08-21T17:43:55.290Z,92.10
2022-08-21T17:46:21.278Z,89.50
2022-08-21T17:48:47.981Z,90.40
2022-08-21T17:51:13.943Z,91.30
2022-08-21T17:53:39.928Z,90.30
2022-08-21T17:56:05.902Z,90.70
2022-08-21T17:58:32.153Z,90.70
2022-08-21T18:00:59.031Z,90.80
2022-08-21T18:03:25.024Z,90.90
2022-08-21T18:05:50.980Z,91.00
2022-08-21T18:08:16.998Z,90.90
2022-08-21T18:10:43.214Z,90.70
2022-08-21T18:13:09.184Z,90.70
2022-08-21T18:15:36.177Z,90.80
2022-08-21T18:18:02.681Z,91.80
2022-08-21T18:20:29.149Z,91.60
2022-08-21T18:22:55.871Z,92.00
2022-08-21T18:25:22.393Z,91.10
2022-08-21T18:27:48.613Z,91.30
2022-08-21T18:30:15.295Z,92.20
2022-08-21T18:32:41.769Z,91.90
2022-08-21T18:35:07.777Z,92.00
2022-08-21T18:37:37.297Z,91.90
2022-08-21T18:40:03.683Z,92.80
2022-08-21T18:42:29.686Z,93.70
2022-08-21T18:44:56.197Z,93.00
2022-08-21T18:47:22.430Z,92.20
2022-08-21T18:49:48.590Z,92.30
2022-08-21T18:52:16.135Z,92.60
2022-08-21T18:54:49.567Z,92.90
2022-08-21T18:57:16.503Z,93.00
2022-08-21T18:59:42.464Z,93.20
2022-08-21T19:02:09.652Z,93.40
2022-08-21T19:07:23.547Z,93.90
2022-08-21T19:10:21.087Z,93.00
2022-08-21T19:12:36.045Z,93.60
2022-08-21T19:15:02.796Z,93.30
2022-08-21T19:17:29.162Z,93.50
2022-08-21T19:19:57.030Z,93.50
2022-08-21T21:19:23.980Z,96.90
2022-08-21T21:21:51.521Z,97.50
2022-08-21T21:24:18.345Z,98.00
2022-08-21T21:26:48.713Z,97.50
2022-08-21T21:29:14.959Z,97.50
2022-08-21T21:31:41.838Z,97.30
2022-08-21T21:34:07.788Z,97.50
2022-08-21T21:36:51.353Z,98.00
2022-08-21T21:39:18.402Z,97.90
2022-08-21T21:41:44.641Z,97.30
2022-08-21T21:44:10.596Z,97.30
2022-08-21T21:46:37.351Z,96.80
2022-08-21T21:49:04.811Z,97.90
2022-08-21T21:51:31.338Z,96.90
2022-08-21T21:54:01.250Z,97.70
2022-08-21T21:56:27.815Z,97.60
2022-08-21T21:58:55.068Z,97.70
2022-08-21T22:01:21.009Z,97.30
2022-08-21T22:03:49.865Z,96.70
2022-08-21T22:06:18.746Z,96.10
2022-08-21T22:08:50.544Z,96.90
2022-08-21T22:14:02.920Z,97.10
2022-08-21T22:16:29.404Z,96.70
2022-08-21T22:18:56.137Z,96.90
2022-08-21T22:21:23.939Z,96.40
2022-08-21T22:23:50.207Z,96.70
2022-08-21T22:26:16.357Z,96.40
2022-08-21T22:28:42.893Z,96.30
2022-08-21T22:31:11.017Z,96.40
2022-08-21T22:33:37.069Z,96.30
2022-08-21T22:36:03.099Z,96.60
2022-08-21T22:38:30.030Z,96.30
2022-08-21T22:40:56.649Z,96.50
2022-08-21T22:43:22.637Z,96.40
2022-08-21T22:45:49.560Z,96.10
2022-08-21T22:48:22.733Z,95.20
2022-08-21T22:50:49.045Z,95.30
2022-08-21T22:53:16.205Z,95.80
2022-08-21T22:55:44.555Z,95.80
2022-08-21T22:58:10.615Z,95.50
2022-08-21T23:00:36.577Z,95.50
2022-08-21T23:03:03.600Z,95.90
2022-08-21T23:05:30.784Z,95.50
2022-08-21T23:07:56.832Z,95.80
2022-08-21T23:10:23.043Z,95.60
2022-08-21T23:15:39.079Z,97.20
2022-08-21T23:18:05.983Z,96.60
2022-08-21T23:20:39.031Z,96.40
2022-08-21T23:23:05.090Z,96.40
2022-08-21T23:25:32.366Z,96.40
2022-08-21T23:27:58.325Z,96.20
2022-08-21T23:30:24.298Z,96.30
2022-08-21T23:32:53.426Z,97.10
2022-08-21T23:35:20.039Z,96.70
2022-08-21T23:37:49.070Z,96.20
2022-08-21T23:40:15.974Z,96.60
2022-08-21T23:42:45.741Z,96.30
2022-08-21T23:47:57.791Z,96.60
2022-08-21T23:50:23.799Z,96.50
2022-08-21T23:52:50.609Z,96.80
2022-08-21T23:55:16.659Z,97.40
2022-08-21T23:57:42.886Z,98.00
